Time;durP1;ratioP1;P1;durP2;ratioP2;P2;SDS_P1;SDS_P2;PMS_P1;PMS_P2;Temp;Humidity;BMP_temperature;BMP_pressure;BME280_temperature;BME280_humidity;BME280_pressure;Samples;Min_cycle;Max_cycle;Signal;HPM_P1;HPM_P2
2024/02/02 00:02:20;;;;;;;7.53;5.28;;;;;;;-0.40;64.91;95176.41;5027721;28;20025;-70
2024/02/02 00:04:45;;;;;;;8.35;5.93;;;;;;;0.01;63.81;95222.66;4993243;28;20042;-71
2024/02/02 00:07:10;;;;;;;8.80;5.57;;;;;;;0.02;63.65;95214.09;5011229;28;20018;-71
2024/02/02 00:09:37;;;;;;;12.90;7.30;;;;;;;0.27;63.70;95235.31;5013221;28;20038;-70
2024/02/02 00:12:04;;;;;;;10.52;6.40;;;;;;;0.02;64.32;95234.53;5018670;28;20491;-71
2024/02/02 00:14:29;;;;;;;9.50;5.95;;;;;;;0.01;64.34;95230.31;5013218;28;20034;-71
2024/02/02 00:16:54;;;;;;;9.20;5.30;;;;;;;-0.12;64.39;95209.47;5030728;28;20476;-71
2024/02/02 00:19:20;;;;;;;5.68;4.43;;;;;;;0.20;64.00;95239.00;5018775;28;20385;-71
2024/02/02 00:21:45;;;;;;;7.43;4.43;;;;;;;0.16;63.32;95233.16;5011806;28;20056;-70
2024/02/02 00:24:11;;;;;;;7.28;4.22;;;;;;;0.21;64.03;95228.72;5012993;28;20419;-71
2024/02/02 00:26:36;;;;;;;7.28;5.13;;;;;;;0.35;63.62;95232.50;5030537;28;20483;-71
2024/02/02 00:29:02;;;;;;;9.13;4.97;;;;;;;0.12;64.28;95223.13;5007619;28;20046;-70
2024/02/02 00:31:27;;;;;;;6.25;4.25;;;;;;;0.28;63.56;95220.81;4994437;28;20059;-70
2024/02/02 00:33:52;;;;;;;6.18;4.00;;;;;;;0.46;63.07;95239.78;5012704;28;20423;-71
2024/02/02 00:36:18;;;;;;;7.38;4.70;;;;;;;0.43;63.28;95235.63;4993271;28;20037;-70
2024/02/02 00:38:43;;;;;;;6.57;4.28;;;;;;;0.49;63.11;95235.38;5021246;28;20592;-71
2024/02/02 00:41:09;;;;;;;5.85;3.92;;;;;;;0.52;62.70;95224.22;5030416;28;20060;-71
2024/02/02 00:43:34;;;;;;;6.47;4.22;;;;;;;0.52;62.68;95225.03;5012498;28;20033;-70
2024/02/02 00:46:00;;;;;;;5.78;3.88;;;;;;;0.62;62.83;95235.78;4996641;28;20209;-70
2024/02/02 00:48:25;;;;;;;7.10;4.22;;;;;;;0.50;62.79;95200.41;5009067;28;20419;-71
2024/02/02 00:50:51;;;;;;;5.88;4.03;;;;;;;0.68;62.97;95222.75;5012619;28;20415;-70
2024/02/02 00:53:16;;;;;;;5.57;4.07;;;;;;;0.70;62.79;95208.19;5030510;28;20029;-71
2024/02/02 00:55:42;;;;;;;9.75;4.50;;;;;;;0.89;62.61;95211.72;5012194;28;20416;-70
2024/02/02 00:58:07;;;;;;;5.97;4.13;;;;;;;1.08;62.37;95205.84;5005880;28;20025;-70
2024/02/02 01:00:33;;;;;;;5.90;4.13;;;;;;;1.02;62.07;95203.56;5030575;28;20038;-71
2024/02/02 01:02:58;;;;;;;8.23;4.50;;;;;;;1.01;62.76;95204.44;5030361;28;20029;-70
2024/02/02 01:05:24;;;;;;;7.13;4.63;;;;;;;0.75;63.39;95196.03;5030221;28;20033;-71
2024/02/02 01:07:49;;;;;;;6.97;4.20;;;;;;;0.86;63.53;95199.03;5011265;28;20025;-70
2024/02/02 01:10:16;;;;;;;5.85;4.28;;;;;;;0.89;63.64;95196.38;5030488;28;20037;-71
2024/02/02 01:12:46;;;;;;;7.50;4.68;;;;;;;0.84;63.72;95208.50;4996656;28;20155;-71
2024/02/02 01:15:12;;;;;;;7.35;4.15;;;;;;;0.74;64.61;95198.66;5011626;28;20402;-71
2024/02/02 01:17:37;;;;;;;6.75;4.82;;;;;;;0.66;63.59;95173.38;5012200;28;20032;-71
2024/02/02 01:20:03;;;;;;;6.95;4.20;;;;;;;0.83;63.71;95194.03;5009212;28;20068;-72
2024/02/02 01:22:32;;;;;;;6.18;4.53;;;;;;;1.08;62.86;95182.84;4995374;28;20017;-72
2024/02/02 01:24:58;;;;;;;6.97;4.32;;;;;;;1.01;62.72;95192.50;4995717;28;20034;-72
2024/02/02 01:27:24;;;;;;;7.93;4.57;;;;;;;0.99;62.85;95170.41;5031029;28;20044;-72
2024/02/02 01:29:49;;;;;;;6.28;4.18;;;;;;;1.27;62.07;95188.06;5032582;28;20037;-71
2024/02/02 01:32:15;;;;;;;6.93;4.93;;;;;;;1.46;60.82;95173.59;4999563;28;20491;-71
2024/02/02 01:34:41;;;;;;;7.50;4.50;;;;;;;1.81;58.94;95183.25;5014653;28;20045;-71
2024/02/02 01:37:06;;;;;;;6.90;4.63;;;;;;;1.60;60.55;95156.84;5016115;28;20025;-71
2024/02/02 01:39:31;;;;;;;8.45;4.55;;;;;;;1.88;58.46;95176.97;4999344;28;20083;-71
2024/02/02 01:41:58;;;;;;;8.45;4.82;;;;;;;2.03;58.90;95163.50;5032682;28;20017;-72
2024/02/02 01:44:24;;;;;;;6.88;4.70;;;;;;;2.17;57.95;95181.69;5015927;28;20124;-71
2024/02/02 01:46:49;;;;;;;9.20;4.78;;;;;;;2.17;59.46;95156.03;5015646;28;20080;-71
2024/02/02 01:49:15;;;;;;;8.23;5.30;;;;;;;2.20;58.99;95176.41;5015647;28;20037;-71
2024/02/02 01:51:40;;;;;;;5.95;4.10;;;;;;;1.99;59.79;95182.47;4995047;28;20030;-71
2024/02/02 01:54:06;;;;;;;6.82;4.82;;;;;;;1.99;59.22;95156.84;5013435;28;20106;-71
2024/02/02 01:56:31;;;;;;;8.60;5.47;;;;;;;2.19;57.85;95163.66;4996038;28;20061;-71
2024/02/02 01:58:57;;;;;;;6.43;4.85;;;;;;;2.19;58.25;95167.03;5013416;28;20042;-71
2024/02/02 02:01:22;;;;;;;7.28;4.95;;;;;;;2.16;58.23;95162.06;4995494;28;20471;-72
2024/02/02 02:03:47;;;;;;;6.47;4.45;;;;;;;2.43;58.45;95174.56;4995733;28;20041;-71
2024/02/02 02:06:13;;;;;;;9.88;5.53;;;;;;;2.45;57.99;95173.59;4979565;28;20503;-71
2024/02/02 02:08:39;;;;;;;7.63;5.20;;;;;;;2.44;58.15;95176.22;4995661;28;20112;-72
2024/02/02 02:11:06;;;;;;;6.65;5.07;;;;;;;2.44;58.83;95181.34;5029100;28;20033;-72
2024/02/02 02:13:32;;;;;;;8.00;5.15;;;;;;;2.30;58.41;95173.44;4999397;28;20037;-72
2024/02/02 02:15:58;;;;;;;7.25;5.38;;;;;;;2.24;59.90;95172.81;4998826;28;20038;-72
2024/02/02 02:18:23;;;;;;;8.70;5.75;;;;;;;2.11;59.26;95170.84;4997467;28;20044;-71
2024/02/02 02:20:50;;;;;;;7.65;5.57;;;;;;;2.29;58.69;95164.91;5015114;28;20033;-71
2024/02/02 02:23:16;;;;;;;8.93;5.90;;;;;;;2.68;57.70;95182.78;4982861;28;20478;-72
2024/02/02 02:25:42;;;;;;;7.90;5.50;;;;;;;2.54;58.03;95176.63;5014622;28;20048;-72
2024/02/02 02:28:08;;;;;;;7.20;5.70;;;;;;;2.64;58.96;95177.84;5007349;28;20022;-71
2024/02/02 02:30:33;;;;;;;8.43;4.95;;;;;;;2.82;59.18;95176.19;5032856;28;20033;-71
2024/02/02 02:32:59;;;;;;;6.63;5.40;;;;;;;2.82;59.36;95179.59;5032594;28;20028;-71
2024/02/02 02:35:24;;;;;;;8.63;5.57;;;;;;;2.96;59.00;95175.53;4998167;28;20096;-70
2024/02/02 02:37:50;;;;;;;8.07;5.45;;;;;;;3.12;58.49;95177.31;5014175;28;20479;-70
2024/02/02 02:40:15;;;;;;;8.13;5.40;;;;;;;3.30;57.96;95179.88;5013960;28;20553;-70
2024/02/02 02:42:40;;;;;;;7.72;5.50;;;;;;;3.31;57.05;95189.25;4998361;28;20025;-70
2024/02/02 02:45:06;;;;;;;10.73;6.03;;;;;;;3.41;57.27;95197.34;5032527;28;20045;-70
2024/02/02 02:47:31;;;;;;;7.25;5.68;;;;;;;3.62;56.31;95200.59;5028627;28;20022;-70
2024/02/02 02:49:57;;;;;;;7.30;5.93;;;;;;;3.63;55.01;95197.13;5007750;28;20041;-71
2024/02/02 02:52:22;;;;;;;8.18;5.65;;;;;;;3.76;54.55;95193.88;5032119;28;20026;-71
2024/02/02 02:54:48;;;;;;;9.90;5.40;;;;;;;3.86;54.40;95198.56;5013640;28;20025;-71
2024/02/02 02:57:13;;;;;;;9.38;6.70;;;;;;;3.80;54.47;95179.97;5030661;28;20038;-71
2024/02/02 02:59:39;;;;;;;8.07;6.40;;;;;;;4.06;54.27;95203.50;4997956;28;20033;-71
2024/02/02 03:02:04;;;;;;;11.50;6.18;;;;;;;4.11;53.56;95190.41;5032052;28;20033;-71
2024/02/02 03:04:30;;;;;;;8.20;5.85;;;;;;;4.09;54.41;95189.66;4996535;28;20034;-71
2024/02/02 03:06:55;;;;;;;8.70;5.97;;;;;;;4.16;54.60;95191.84;5012537;28;20030;-71
2024/02/02 03:09:21;;;;;;;9.63;6.40;;;;;;;3.96;55.86;95187.72;4994412;28;20038;-71
2024/02/02 03:11:46;;;;;;;9.02;6.15;;;;;;;4.13;56.01;95186.03;4994437;28;20088;-71
2024/02/02 03:14:13;;;;;;;10.45;7.40;;;;;;;4.02;56.84;95168.59;5003581;28;20045;-71
2024/02/02 03:16:38;;;;;;;7.93;6.43;;;;;;;3.99;57.87;95184.19;5011458;28;20014;-71
2024/02/02 03:19:04;;;;;;;10.10;6.20;;;;;;;4.13;58.50;95181.72;4994264;28;20408;-71
2024/02/02 03:21:30;;;;;;;8.52;6.65;;;;;;;4.02;59.20;95184.84;5011577;28;20488;-71
2024/02/02 03:23:55;;;;;;;10.55;7.03;;;;;;;4.08;60.79;95182.88;5029562;28;20080;-71
2024/02/02 03:26:21;;;;;;;10.52;6.07;;;;;;;4.15;61.90;95186.78;5013963;28;20029;-71
2024/02/02 03:28:46;;;;;;;8.75;6.82;;;;;;;4.27;62.08;95165.56;5031403;28;20032;-71
2024/02/02 03:31:12;;;;;;;7.72;5.95;;;;;;;4.14;62.55;95193.66;5009778;28;20034;-71
2024/02/02 03:33:37;;;;;;;9.18;6.40;;;;;;;4.30;62.66;95183.41;4994119;28;20032;-71
2024/02/02 03:36:03;;;;;;;8.57;5.82;;;;;;;4.29;62.74;95189.47;5011718;28;20471;-71
2024/02/02 03:38:28;;;;;;;6.82;4.97;;;;;;;4.27;62.86;95173.28;4977892;28;20026;-71
2024/02/02 03:40:54;;;;;;;7.80;5.43;;;;;;;4.37;63.08;95189.06;5003618;28;20087;-71
2024/02/02 03:43:19;;;;;;;7.55;5.10;;;;;;;4.25;63.55;95180.25;5013598;28;20514;-71
2024/02/02 03:45:45;;;;;;;8.43;6.10;;;;;;;4.43;63.61;95191.31;5031554;28;20033;-71
2024/02/02 03:48:10;;;;;;;8.85;5.18;;;;;;;4.40;63.47;95196.59;4997297;28;20036;-72
2024/02/02 03:50:36;;;;;;;7.95;7.15;;;;;;;4.37;63.95;95202.75;5029681;28;20113;-71
2024/02/02 03:53:01;;;;;;;7.65;6.15;;;;;;;4.43;63.91;95197.31;5025321;28;20034;-71
2024/02/02 03:55:27;;;;;;;7.97;6.40;;;;;;;4.49;63.38;95191.00;4977750;28;20077;-72
2024/02/02 03:57:53;;;;;;;6.65;5.63;;;;;;;4.38;63.89;95183.03;4978073;28;20037;-73
2024/02/02 04:00:18;;;;;;;9.95;7.72;;;;;;;4.42;64.15;95198.19;5013470;28;20048;-70
2024/02/02 04:02:47;;;;;;;8.20;6.35;;;;;;;4.50;63.89;95186.69;5015046;28;20034;-70
2024/02/02 04:05:12;;;;;;;10.68;8.20;;;;;;;4.38;64.44;95193.31;5011494;28;20041;-70
2024/02/02 04:07:38;;;;;;;14.13;12.63;;;;;;;4.34;64.14;95195.19;5012029;28;20037;-70
2024/02/02 04:10:04;;;;;;;12.82;11.35;;;;;;;4.33;64.04;95210.72;5011006;28;20489;-70
2024/02/02 04:12:29;;;;;;;10.93;8.15;;;;;;;4.53;63.49;95196.81;5026232;28;20043;-70
2024/02/02 04:14:55;;;;;;;9.15;6.93;;;;;;;4.40;64.07;95205.19;4993612;28;20488;-70
2024/02/02 04:17:21;;;;;;;10.98;8.38;;;;;;;4.42;64.09;95211.06;5008857;28;20034;-70
2024/02/02 04:19:46;;;;;;;14.23;9.38;;;;;;;4.33;64.16;95200.44;4993475;28;20041;-70
2024/02/02 04:22:12;;;;;;;10.80;7.80;;;;;;;4.08;63.94;95204.25;5011056;28;20037;-70
2024/02/02 04:24:37;;;;;;;12.50;9.63;;;;;;;4.30;62.62;95214.28;4993446;28;20038;-70
2024/02/02 04:27:03;;;;;;;12.20;7.85;;;;;;;4.17;61.83;95234.63;5024694;28;20041;-70
2024/02/02 04:29:28;;;;;;;11.00;8.25;;;;;;;3.97;62.26;95234.81;5011165;28;20037;-70
2024/02/02 04:31:53;;;;;;;12.02;7.88;;;;;;;3.97;61.72;95232.25;5010863;28;20424;-70
2024/02/02 04:34:19;;;;;;;11.43;8.05;;;;;;;4.05;61.77;95234.44;5023664;28;20705;-70
2024/02/02 04:36:44;;;;;;;11.30;9.00;;;;;;;3.93;62.10;95247.00;5008883;28;20042;-70
2024/02/02 04:39:10;;;;;;;12.75;9.43;;;;;;;3.91;62.04;95228.25;4992335;28;20037;-70
2024/02/02 04:41:36;;;;;;;9.82;7.85;;;;;;;3.78;63.06;95228.03;5010800;28;20030;-71
2024/02/02 04:44:01;;;;;;;10.93;6.72;;;;;;;3.76;62.76;95224.72;4992925;28;20037;-70
2024/02/02 04:46:27;;;;;;;8.35;6.38;;;;;;;3.82;63.22;95241.56;5026108;28;20026;-70
2024/02/02 04:48:52;;;;;;;7.90;6.30;;;;;;;3.71;64.04;95251.56;5008943;28;20034;-70
2024/02/02 04:51:17;;;;;;;8.75;6.30;;;;;;;3.71;64.17;95248.97;4996227;28;20037;-72
2024/02/02 04:53:43;;;;;;;8.82;6.45;;;;;;;3.72;63.99;95248.88;5010102;28;20462;-72
2024/02/02 04:56:09;;;;;;;9.05;6.70;;;;;;;3.72;64.21;95248.06;5023022;28;20096;-71
2024/02/02 04:58:34;;;;;;;9.07;6.75;;;;;;;3.77;64.34;95246.09;5017917;28;20388;-71
2024/02/02 05:01:00;;;;;;;8.07;6.93;;;;;;;3.85;64.41;95266.28;5019160;28;20914;-71
2024/02/02 05:03:25;;;;;;;8.55;7.47;;;;;;;3.66;64.94;95249.19;4992856;28;20491;-71
2024/02/02 05:05:51;;;;;;;8.82;6.97;;;;;;;3.52;65.46;95247.28;4998590;28;20415;-71
2024/02/02 05:08:16;;;;;;;8.40;6.88;;;;;;;3.61;64.93;95260.59;5026899;28;20038;-71
2024/02/02 05:10:42;;;;;;;10.73;7.35;;;;;;;3.66;64.90;95264.63;5014322;28;20037;-72
2024/02/02 05:13:07;;;;;;;9.10;7.10;;;;;;;3.57;65.58;95263.31;5009023;28;20040;-73
2024/02/02 05:15:35;;;;;;;9.95;7.15;;;;;;;3.73;65.08;95283.13;5008053;28;20037;-72
2024/02/02 05:18:01;;;;;;;9.98;6.80;;;;;;;3.61;65.55;95273.44;5011113;28;20529;-72
2024/02/02 05:20:26;;;;;;;9.63;7.20;;;;;;;3.62;65.37;95272.53;4977192;28;20212;-72
2024/02/02 05:22:51;;;;;;;8.32;6.68;;;;;;;3.59;65.34;95286.34;4999105;28;20360;-72
2024/02/02 05:25:17;;;;;;;10.00;8.15;;;;;;;3.48;65.52;95291.19;4988808;28;20113;-73
2024/02/02 05:27:43;;;;;;;8.48;6.75;;;;;;;3.51;65.39;95285.88;5003954;28;20026;-74
2024/02/02 05:30:08;;;;;;;10.77;7.75;;;;;;;3.53;65.67;95292.63;5010131;28;20033;-74
2024/02/02 05:32:34;;;;;;;9.57;7.03;;;;;;;3.42;65.90;95294.88;5022422;28;20033;-73
2024/02/02 05:34:59;;;;;;;9.27;7.10;;;;;;;3.46;65.91;95305.84;5001075;28;20058;-73
2024/02/02 05:37:25;;;;;;;8.23;6.10;;;;;;;3.36;66.34;95302.88;5010015;28;20038;-72
2024/02/02 05:39:50;;;;;;;8.98;6.32;;;;;;;3.38;66.35;95306.19;4998333;28;20071;-73
2024/02/02 05:42:16;;;;;;;12.80;9.50;;;;;;;3.08;67.61;95316.97;4999322;28;20049;-71
2024/02/02 05:44:42;;;;;;;12.73;10.65;;;;;;;3.03;67.82;95316.34;5013192;28;20517;-72
2024/02/02 05:47:08;;;;;;;7.63;6.40;;;;;;;3.22;67.83;95306.06;4983046;28;20021;-71
2024/02/02 05:49:33;;;;;;;11.50;9.18;;;;;;;3.17;67.67;95327.72;5013632;28;20033;-71
2024/02/02 05:51:59;;;;;;;9.02;7.10;;;;;;;3.10;68.68;95325.44;5015595;28;20431;-71
2024/02/02 05:54:25;;;;;;;9.43;6.65;;;;;;;3.12;68.38;95341.63;5033239;28;20061;-71
2024/02/02 05:56:50;;;;;;;14.23;10.10;;;;;;;2.99;69.42;95337.09;5032468;28;20056;-70
2024/02/02 05:59:16;;;;;;;12.40;9.85;;;;;;;2.97;69.94;95351.72;5032920;28;20025;-71
2024/02/02 06:01:41;;;;;;;9.32;7.40;;;;;;;3.04;69.64;95353.97;5022071;28;20483;-70
2024/02/02 06:04:07;;;;;;;8.98;7.20;;;;;;;3.04;69.48;95346.25;5007017;28;20121;-71
2024/02/02 06:06:32;;;;;;;8.82;7.55;;;;;;;3.11;69.42;95360.47;4999204;28;20040;-71
2024/02/02 06:08:58;;;;;;;10.50;9.25;;;;;;;2.95;69.94;95333.81;4997881;28;20033;-74
2024/02/02 06:11:23;;;;;;;14.80;12.38;;;;;;;3.05;70.97;95365.88;4993360;28;20025;-72
2024/02/02 06:13:54;;;;;;;9.95;8.20;;;;;;;3.02;70.91;95371.16;5000039;28;20022;-71
2024/02/02 06:16:20;;;;;;;9.88;7.55;;;;;;;2.90;71.18;95364.00;5027658;28;20526;-71
2024/02/02 06:18:45;;;;;;;9.43;7.70;;;;;;;3.00;71.32;95370.38;4979512;28;20065;-71
2024/02/02 06:21:11;;;;;;;10.13;7.70;;;;;;;2.87;71.94;95375.25;5010054;28;20033;-70
2024/02/02 06:23:36;;;;;;;10.02;7.85;;;;;;;2.71;72.87;95371.69;5015122;28;20025;-70
2024/02/02 06:26:02;;;;;;;10.43;8.60;;;;;;;2.88;72.34;95399.16;4982430;28;20033;-70
2024/02/02 06:28:27;;;;;;;12.45;9.27;;;;;;;2.93;72.64;95397.25;5032696;28;20590;-70
2024/02/02 06:30:53;;;;;;;13.80;10.05;;;;;;;2.84;72.31;95377.09;4998346;28;20475;-70
2024/02/02 06:33:18;;;;;;;18.13;11.65;;;;;;;2.93;72.79;95410.06;5014035;28;20034;-72
2024/02/02 06:35:44;;;;;;;16.52;11.82;;;;;;;3.00;73.12;95398.63;4994867;28;20045;-70
2024/02/02 06:38:11;;;;;;;12.48;8.88;;;;;;;2.94;73.06;95404.03;5007793;28;20029;-71
2024/02/02 06:40:36;;;;;;;14.88;11.35;;;;;;;3.05;72.73;95406.13;5017155;28;20040;-71
2024/02/02 06:43:04;;;;;;;12.70;9.45;;;;;;;3.01;72.81;95404.59;5005908;28;20029;-71
2024/02/02 06:45:29;;;;;;;15.45;12.50;;;;;;;3.00;72.63;95414.03;4985159;28;20037;-71
2024/02/02 06:47:55;;;;;;;11.77;8.43;;;;;;;3.07;72.20;95412.88;5031763;28;20484;-73
2024/02/02 06:50:20;;;;;;;13.18;9.55;;;;;;;2.85;72.53;95409.56;5013061;28;20041;-71
2024/02/02 06:52:46;;;;;;;12.77;10.02;;;;;;;2.78;73.31;95398.72;4997837;28;20450;-71
2024/02/02 06:55:12;;;;;;;14.00;10.88;;;;;;;2.95;72.90;95405.69;5005867;28;20455;-71
2024/02/02 06:57:37;;;;;;;13.18;9.73;;;;;;;2.90;73.11;95402.50;4995952;28;20028;-72
2024/02/02 07:00:03;;;;;;;10.70;8.57;;;;;;;2.84;72.58;95395.06;5014443;28;20041;-71
2024/02/02 07:02:32;;;;;;;11.88;9.27;;;;;;;2.87;72.26;95393.22;4997748;28;20499;-71
2024/02/02 07:04:58;;;;;;;12.27;9.32;;;;;;;2.99;71.16;95391.00;4998350;28;20029;-72
2024/02/02 07:07:23;;;;;;;10.68;7.90;;;;;;;2.99;69.93;95378.19;4997373;28;20032;-71
2024/02/02 07:09:54;;;;;;;11.15;8.32;;;;;;;3.05;70.00;95401.81;5031735;28;20391;-71
2024/02/02 07:12:25;;;;;;;12.50;8.23;;;;;;;3.11;68.88;95404.13;5003601;28;20037;-71
2024/02/02 07:14:51;;;;;;;15.38;9.45;;;;;;;3.28;68.59;95423.09;5012197;28;20500;-71
2024/02/02 07:17:32;;;;;;;11.50;8.82;;;;;;;3.19;67.21;95413.22;4994387;28;20124;-71
2024/02/02 07:19:57;;;;;;;11.98;8.55;;;;;;;3.09;67.77;95402.50;5010870;28;20045;-71
2024/02/02 07:22:35;;;;;;;12.82;8.90;;;;;;;3.24;67.04;95419.81;5010572;28;20088;-71
2024/02/02 07:25:01;;;;;;;14.35;10.60;;;;;;;3.27;67.40;95414.56;5011525;28;20048;-71
2024/02/02 07:27:57;;;;;;;9.68;7.65;;;;;;;3.36;66.52;95409.00;4994053;28;20416;-71
2024/02/02 07:30:40;;;;;;;12.02;7.30;;;;;;;3.28;66.86;95417.94;5010602;28;20052;-72
2024/02/02 07:33:26;;;;;;;10.35;7.78;;;;;;;3.32;67.42;95419.50;5013160;28;20038;-72
2024/02/02 07:35:52;;;;;;;10.75;8.10;;;;;;;3.25;67.54;95420.66;5001100;28;20520;-72
2024/02/02 07:38:53;;;;;;;10.25;7.85;;;;;;;3.20;67.54;95410.56;4989465;28;20393;-72
2024/02/02 07:41:22;;;;;;;8.82;7.20;;;;;;;3.22;67.07;95415.66;4990592;28;20526;-72
2024/02/02 07:43:47;;;;;;;10.15;7.53;;;;;;;3.21;66.50;95427.66;4977740;28;20125;-72
2024/02/02 07:46:13;;;;;;;10.57;7.65;;;;;;;3.22;66.91;95423.38;5001215;28;20083;-71
2024/02/02 07:48:40;;;;;;;11.07;8.25;;;;;;;3.10;67.31;95417.03;5009231;28;20048;-72
2024/02/02 07:51:05;;;;;;;12.00;8.18;;;;;;;3.06;67.29;95389.81;4995913;28;20030;-71
2024/02/02 07:53:32;;;;;;;14.68;8.68;;;;;;;3.21;67.74;95424.28;5001783;28;20032;-71
2024/02/02 07:55:57;;;;;;;12.20;8.77;;;;;;;3.01;67.80;95415.72;4993451;28;20045;-71
2024/02/02 07:58:23;;;;;;;10.65;8.27;;;;;;;3.20;68.19;95432.84;5001096;28;20056;-71
2024/02/02 08:00:51;;;;;;;10.75;8.65;;;;;;;3.03;68.72;95419.03;5026138;28;20429;-70
2024/02/02 08:03:17;;;;;;;12.35;9.02;;;;;;;3.14;68.50;95429.66;5005666;28;20025;-72
2024/02/02 08:05:42;;;;;;;11.82;9.65;;;;;;;3.06;69.54;95452.25;4993372;28;20076;-71
2024/02/02 08:08:08;;;;;;;11.70;8.38;;;;;;;3.11;69.33;95437.50;4987853;28;20087;-71
2024/02/02 08:10:33;;;;;;;12.85;8.40;;;;;;;3.08;69.16;95439.38;4983240;28;20280;-71
2024/02/02 08:12:59;;;;;;;10.40;8.25;;;;;;;3.01;69.21;95420.00;5008048;28;20108;-70
2024/02/02 08:15:25;;;;;;;12.50;8.77;;;;;;;3.00;69.02;95432.00;4993304;28;20026;-71
2024/02/02 08:17:50;;;;;;;11.52;9.25;;;;;;;3.12;68.79;95451.16;4993559;28;20381;-71
2024/02/02 08:20:16;;;;;;;11.70;8.63;;;;;;;3.11;69.29;95439.22;4995889;28;20582;-70
2024/02/02 08:22:44;;;;;;;11.15;7.75;;;;;;;3.01;68.94;95436.25;4996891;28;20037;-71
2024/02/02 08:25:10;;;;;;;9.52;7.53;;;;;;;3.09;68.43;95453.88;4997383;28;20051;-70
2024/02/02 08:27:36;;;;;;;10.80;8.00;;;;;;;3.14;68.41;95442.50;5012943;28;20034;-71
2024/02/02 08:30:02;;;;;;;10.18;8.02;;;;;;;3.18;67.62;95444.94;4992954;28;20503;-72
2024/02/02 08:32:27;;;;;;;10.13;7.93;;;;;;;3.20;67.36;95446.53;4993425;28;20101;-72
2024/02/02 08:34:53;;;;;;;10.18;8.05;;;;;;;3.07;67.33;95430.84;5004293;28;20504;-71
2024/02/02 08:37:19;;;;;;;11.52;8.70;;;;;;;3.20;67.57;95455.97;5014249;28;20018;-71
2024/02/02 08:39:44;;;;;;;10.15;8.02;;;;;;;3.32;67.32;95456.28;5016861;28;20033;-72
2024/02/02 08:42:21;;;;;;;9.20;7.78;;;;;;;3.32;66.82;95450.31;5000613;28;20028;-71
2024/02/02 08:44:47;;;;;;;11.20;8.15;;;;;;;3.30;66.17;95426.44;4984480;28;20410;-72
2024/02/02 08:47:12;;;;;;;9.98;8.05;;;;;;;3.56;65.51;95456.91;5016965;28;20032;-71
2024/02/02 08:50:01;;;;;;;11.77;8.13;;;;;;;3.50;64.99;95410.94;5000305;28;20037;-72
2024/02/02 08:52:33;;;;;;;12.63;9.20;;;;;;;3.64;64.74;95456.56;5000216;28;20029;-71
2024/02/02 08:55:01;;;;;;;28.98;17.63;;;;;;;3.57;64.44;95442.34;5003494;28;20518;-71
2024/02/02 08:57:33;;;;;;;18.73;12.73;;;;;;;3.71;63.50;95460.53;4985547;28;20529;-72
2024/02/02 09:00:04;;;;;;;14.10;9.52;;;;;;;3.75;62.84;95450.94;5016360;28;20065;-71
2024/02/02 09:02:33;;;;;;;;;;;;;;;3.76;62.68;95444.88;5001767;28;20037;-71
2024/02/02 09:05:08;;;;;;;24.95;15.25;;;;;;;3.87;62.61;95459.81;5030446;28;19971;-71
2024/02/02 09:07:34;;;;;;;31.55;17.65;;;;;;;3.67;61.32;95437.59;5031174;28;20251;-71
2024/02/02 09:09:59;;;;;;;21.25;13.05;;;;;;;3.79;59.92;95465.31;5026648;28;20408;-71
2024/02/02 09:12:28;;;;;;;34.38;20.85;;;;;;;3.83;59.58;95461.69;5016250;28;20056;-71
2024/02/02 09:14:53;;;;;;;18.45;13.02;;;;;;;3.90;59.38;95465.66;5014680;28;20032;-70
2024/02/02 09:17:19;;;;;;;15.98;11.10;;;;;;;3.94;58.04;95451.75;4999803;28;20029;-70
2024/02/02 09:19:45;;;;;;;11.93;9.65;;;;;;;4.02;58.19;95466.81;5016076;28;20095;-70
2024/02/02 09:22:17;;;;;;;18.85;10.35;;;;;;;3.99;57.31;95451.53;5015960;28;20052;-70
2024/02/02 09:24:43;;;;;;;13.27;9.25;;;;;;;4.06;57.19;95450.34;4994488;28;20037;-70
2024/02/02 09:27:14;;;;;;;19.77;17.48;;;;;;;4.07;56.98;95459.72;5002008;28;20527;-70
2024/02/02 09:29:49;;;;;;;15.68;12.88;;;;;;;4.16;56.83;95458.47;4980689;28;20030;-70
2024/02/02 09:32:17;;;;;;;18.05;15.60;;;;;;;4.13;57.12;95454.28;5009424;28;20042;-72
2024/02/02 09:34:46;;;;;;;8.88;7.00;;;;;;;4.26;55.83;95454.53;4999984;28;20048;-70
2024/02/02 09:37:17;;;;;;;10.63;8.48;;;;;;;4.24;55.49;95452.03;5031394;28;20029;-70
2024/02/02 09:39:43;;;;;;;25.95;21.10;;;;;;;4.24;54.75;95466.66;5014894;28;20072;-70
2024/02/02 09:42:11;;;;;;;22.58;17.83;;;;;;;4.35;55.28;95464.41;5033126;28;20502;-70
2024/02/02 09:44:50;;;;;;;25.63;18.40;;;;;;;4.37;55.14;95460.00;5032953;28;20068;-70
2024/02/02 09:47:41;;;;;;;8.93;7.20;;;;;;;4.41;53.87;95451.22;4998748;28;20033;-70
2024/02/02 09:50:09;;;;;;;19.67;16.48;;;;;;;4.55;53.56;95457.47;5006986;28;20140;-70
2024/02/02 09:52:59;;;;;;;7.57;6.30;;;;;;;4.42;53.84;95455.47;5012737;28;20513;-70
2024/02/02 09:56:01;;;;;;;9.18;7.30;;;;;;;4.37;54.41;95416.25;5031688;28;20029;-70
2024/02/02 09:59:04;;;;;;;9.68;7.25;;;;;;;4.67;54.28;95451.69;4977398;28;20120;-70
2024/02/02 10:01:51;;;;;;;17.27;11.48;;;;;;;4.58;54.62;95454.72;4992201;28;20205;-69
2024/02/02 10:04:45;;;;;;;9.38;7.07;;;;;;;4.59;53.95;95452.06;5012976;28;20560;-70
2024/02/02 10:07:32;;;;;;;8.50;6.20;;;;;;;4.42;54.64;95463.19;4990485;28;20034;-71
2024/02/02 10:10:22;;;;;;;9.80;8.80;;;;;;;4.64;54.04;95447.53;5025634;28;20411;-70
2024/02/02 10:12:48;;;;;;;8.23;7.00;;;;;;;4.74;53.44;95442.78;5031752;28;20599;-70
2024/02/02 10:15:35;;;;;;;9.05;8.10;;;;;;;4.74;53.54;95455.66;5032260;28;20042;-70
2024/02/02 10:18:18;;;;;;;14.30;10.23;;;;;;;4.69;53.76;95452.47;5014218;28;20407;-70
2024/02/02 10:20:56;;;;;;;22.52;14.60;;;;;;;4.69;53.45;95447.31;5031190;28;20125;-70
2024/02/02 10:23:35;;;;;;;12.18;8.90;;;;;;;4.64;53.55;95438.97;5020114;28;20037;-70
2024/02/02 10:26:22;;;;;;;26.35;14.63;;;;;;;4.53;54.24;95441.25;4995283;28;20441;-70
2024/02/02 10:28:56;;;;;;;16.77;12.38;;;;;;;4.70;53.81;95436.09;5007249;28;20052;-70
2024/02/02 10:31:33;;;;;;;26.95;14.95;;;;;;;4.64;53.61;95436.41;4982803;28;20511;-70
2024/02/02 10:34:10;;;;;;;25.48;14.45;;;;;;;4.60;54.34;95438.31;5030995;28;20038;-69
2024/02/02 10:36:44;;;;;;;15.02;10.18;;;;;;;4.55;54.41;95442.00;5024416;28;20029;-70
2024/02/02 10:39:16;;;;;;;17.65;10.75;;;;;;;4.56;54.66;95439.34;5013563;28;20037;-70
2024/02/02 10:41:56;;;;;;;16.88;11.02;;;;;;;4.56;54.35;95441.94;4977147;28;20056;-69
2024/02/02 10:44:44;;;;;;;12.82;9.15;;;;;;;4.45;54.93;95426.19;5012740;28;20040;-70
2024/02/02 10:47:15;;;;;;;7.88;6.03;;;;;;;4.34;54.94;95447.28;5012751;28;20029;-70
2024/02/02 10:49:46;;;;;;;10.05;7.40;;;;;;;4.42;54.94;95447.75;5026279;28;20040;-69
2024/02/02 10:52:19;;;;;;;8.50;5.90;;;;;;;4.50;55.06;95449.13;5018701;28;20030;-70
2024/02/02 10:55:22;;;;;;;8.05;5.80;;;;;;;4.40;55.86;95447.00;4985411;28;20499;-70
2024/02/02 10:58:04;;;;;;;7.13;5.72;;;;;;;4.58;55.72;95436.72;4977913;28;20069;-70
2024/02/02 11:00:34;;;;;;;8.68;5.43;;;;;;;4.65;54.96;95427.75;5009141;28;20030;-70
2024/02/02 11:03:32;;;;;;;7.47;5.73;;;;;;;4.63;55.24;95445.03;5007312;28;20033;-70
2024/02/02 11:06:16;;;;;;;8.43;5.68;;;;;;;4.64;55.30;95449.28;5025172;28;20041;-70
2024/02/02 11:08:44;;;;;;;6.85;5.05;;;;;;;4.45;55.39;95447.59;5023679;28;20033;-70
2024/02/02 11:11:17;;;;;;;6.85;5.45;;;;;;;4.46;55.57;95461.31;5012321;28;20404;-69
2024/02/02 11:13:52;;;;;;;8.10;5.03;;;;;;;4.42;55.54;95458.03;4984247;28;20478;-69
2024/02/02 11:16:37;;;;;;;7.05;5.22;;;;;;;4.30;55.71;95455.25;4974739;28;20490;-68
2024/02/02 11:19:25;;;;;;;6.28;4.70;;;;;;;4.22;55.72;95443.56;5010043;28;20029;-68
2024/02/02 11:22:21;;;;;;;6.30;5.05;;;;;;;4.34;55.50;95447.28;5016630;28;20025;-68
2024/02/02 11:24:52;;;;;;;5.68;4.53;;;;;;;4.36;55.67;95463.47;5013772;28;20108;-68
2024/02/02 11:27:33;;;;;;;6.07;4.60;;;;;;;4.19;56.43;95464.28;5013538;28;20041;-69
2024/02/02 11:30:07;;;;;;;5.53;4.78;;;;;;;4.23;56.31;95460.69;5006832;28;20416;-68
2024/02/02 11:32:57;;;;;;;7.85;4.88;;;;;;;4.24;56.15;95458.94;4988497;28;20053;-69
2024/02/02 11:35:49;;;;;;;7.47;5.03;;;;;;;3.97;57.22;95461.88;5018873;28;20053;-69
2024/02/02 11:38:30;;;;;;;9.68;5.32;;;;;;;4.00;57.53;95455.78;5030573;28;20037;-70
2024/02/02 11:40:56;;;;;;;7.35;5.60;;;;;;;3.80;57.69;95456.69;4996244;28;20033;-69
2024/02/02 11:43:21;;;;;;;6.85;5.40;;;;;;;3.70;58.21;95455.44;4965229;28;20049;-70
2024/02/02 11:45:48;;;;;;;7.70;5.82;;;;;;;3.89;58.07;95460.59;5001343;28;20042;-70